Terminal Aerodrome Forecast
Issued by NWS Twin Cities, MN

Home | Current Version | Previous Version | Text Only | Print | Product List | Glossary Off
Versions: 1 2 3 4 5 6 7 8 9 10 11 12 13 14 15 16 17 18 19 20

000
FTUS43 KMPX 271700
TAFSTC
TAF
KSTC 271725Z 2718/2818 29005KT P6SM OVC100
     FM272000 30011G18KT 6SM -SHRA SCT050 BKN080
     FM280000 27007KT P6SM BKN070
     FM280900 27011G19KT P6SM BKN100
     FM281500 29014G23KT P6SM BKN015 OVC040=

USA.gov is the U.S. government's official web portal to all federal, state and local government web resources and services.